createdAt,value
2023-03-18T00:00:14.008Z,100370.03
2023-03-18T00:02:42.210Z,100364.38
2023-03-18T00:05:11.239Z,100359.13
2023-03-18T00:07:38.024Z,100351.03
2023-03-18T00:10:06.288Z,100341.59
2023-03-18T00:12:33.345Z,100346.22
2023-03-18T00:15:01.081Z,100338.94
2023-03-18T00:17:27.779Z,100334.84
2023-03-18T00:19:55.371Z,100341.28
2023-03-18T00:22:22.764Z,100338.94
2023-03-18T00:24:49.563Z,100322.63
2023-03-18T00:27:16.759Z,100316.59
2023-03-18T00:29:43.958Z,100315.31
2023-03-18T00:32:11.191Z,100306.41
2023-03-18T00:34:37.841Z,100303.28
2023-03-18T00:37:05.146Z,100302.56
2023-03-18T00:39:33.175Z,100296.59
2023-03-18T00:42:08.127Z,100299.78
2023-03-18T00:44:34.910Z,100302.91
2023-03-18T00:47:01.756Z,100309.50
2023-03-18T00:49:28.338Z,100308.03
2023-03-18T00:51:54.918Z,100317.63
2023-03-18T00:54:22.504Z,100322.56
2023-03-18T00:56:49.753Z,100334.88
2023-03-18T00:59:16.559Z,100352.00
2023-03-18T01:01:43.193Z,100360.19
2023-03-18T01:04:10.248Z,100367.84
2023-03-18T01:06:38.485Z,100369.47
2023-03-18T01:09:07.048Z,100374.22
2023-03-18T01:11:33.732Z,100376.47
2023-03-18T01:14:01.156Z,100382.59
2023-03-18T01:16:29.828Z,100388.50
2023-03-18T01:18:56.470Z,100399.91
2023-03-18T01:21:23.044Z,100405.81
2023-03-18T01:23:49.894Z,100409.09
2023-03-18T01:26:16.897Z,100418.25
2023-03-18T01:28:43.831Z,100421.09
2023-03-18T01:31:10.395Z,100426.81
2023-03-18T01:33:37.044Z,100426.59
2023-03-18T01:36:05.396Z,100427.19
2023-03-18T01:38:32.800Z,100420.00
2023-03-18T01:41:00.969Z,100427.88
2023-03-18T01:43:34.238Z,100454.47
2023-03-18T01:46:02.751Z,100465.59
2023-03-18T01:48:35.459Z,100458.03
2023-03-18T01:51:06.569Z,100450.69
2023-03-18T01:53:39.876Z,100447.84
2023-03-18T01:56:07.110Z,100432.56
2023-03-18T01:58:38.644Z,100418.31
2023-03-18T02:09:07.968Z,100368.72
2023-03-18T02:14:17.811Z,99956.84
2023-03-18T02:17:01.631Z,99925.50
2023-03-18T02:19:42.895Z,99925.28
2023-03-18T02:22:15.407Z,99898.00
2023-03-18T02:25:00.188Z,99890.66
2023-03-18T02:27:30.183Z,99865.03
2023-03-18T02:29:59.751Z,99854.47
2023-03-18T02:32:29.205Z,99821.66
2023-03-18T02:34:57.085Z,99822.50
2023-03-18T02:37:23.714Z,99791.56
2023-03-18T02:39:50.656Z,99785.09
2023-03-18T02:42:30.643Z,99783.06
2023-03-18T02:44:59.067Z,99771.66
2023-03-18T02:47:27.047Z,99758.25
2023-03-18T02:49:54.033Z,99758.66
2023-03-18T02:52:21.010Z,99735.28
2023-03-18T02:54:47.632Z,99736.69
2023-03-18T02:57:14.203Z,99708.47
2023-03-18T02:59:40.972Z,99723.91
2023-03-18T03:02:07.881Z,99715.59
2023-03-18T03:04:34.692Z,99708.25
2023-03-18T03:07:02.221Z,99714.56
2023-03-18T03:09:29.104Z,99685.31
2023-03-18T03:11:55.839Z,99694.47
2023-03-18T03:14:22.500Z,99676.78
2023-03-18T03:16:49.626Z,99680.44
2023-03-18T03:19:16.463Z,99661.31
2023-03-18T03:21:43.518Z,99660.53
2023-03-18T03:24:11.113Z,99646.13
2023-03-18T03:26:37.823Z,99652.66
2023-03-18T03:29:05.664Z,99653.28
2023-03-18T03:31:33.137Z,99652.69
2023-03-18T03:33:59.840Z,99637.25
2023-03-18T03:36:26.660Z,99631.38
2023-03-18T03:38:54.073Z,99634.44
2023-03-18T03:41:20.967Z,99632.66
2023-03-18T03:43:47.936Z,99616.00
2023-03-18T03:46:15.639Z,99555.84
2023-03-18T03:48:42.228Z,99563.34
2023-03-18T03:51:09.452Z,99550.34
2023-03-18T03:53:36.417Z,99555.41
2023-03-18T03:56:04.370Z,99553.19
2023-03-18T03:58:31.187Z,99548.34
2023-03-18T04:00:57.824Z,99552.84
2023-03-18T04:03:25.604Z,99552.91
2023-03-18T04:05:52.669Z,99564.69
2023-03-18T04:08:19.278Z,99548.66
2023-03-18T04:10:45.843Z,99528.59
2023-03-18T04:13:12.488Z,99519.22
2023-03-18T04:15:39.122Z,99512.53
2023-03-18T04:18:07.213Z,99518.84
2023-03-18T04:20:35.849Z,99505.50
2023-03-18T04:23:02.810Z,99500.84
2023-03-18T04:25:30.383Z,99497.63
2023-03-18T04:27:57.829Z,99491.94
2023-03-18T04:30:26.114Z,99481.56
2023-03-18T04:32:53.562Z,99485.28
2023-03-18T04:35:21.261Z,99474.09
2023-03-18T04:37:48.953Z,99489.50
2023-03-18T04:40:15.933Z,99480.75
2023-03-18T04:42:43.228Z,99472.44
2023-03-18T04:45:10.253Z,99460.06
2023-03-18T04:47:38.305Z,99432.66
2023-03-18T04:50:05.638Z,99420.91
2023-03-18T04:52:32.244Z,99400.22
2023-03-18T04:54:58.800Z,99389.69
2023-03-18T04:57:26.081Z,99392.16
2023-03-18T04:59:52.732Z,99393.41
2023-03-18T05:02:20.051Z,99396.06
2023-03-18T05:04:47.512Z,99402.72
2023-03-18T05:07:16.001Z,99417.47
2023-03-18T05:09:42.565Z,99424.59
2023-03-18T05:12:15.048Z,99426.22
2023-03-18T05:14:45.127Z,99422.34
2023-03-18T05:17:15.948Z,99437.16
2023-03-18T05:19:45.239Z,99447.72
2023-03-18T05:22:13.066Z,99442.22
2023-03-18T05:24:43.973Z,99432.50
2023-03-18T05:27:11.046Z,99428.06
2023-03-18T05:29:40.207Z,99425.81
2023-03-18T05:32:08.233Z,99421.19
2023-03-18T05:34:37.699Z,99423.00
2023-03-18T05:37:05.855Z,99417.38
2023-03-18T05:39:33.209Z,99401.72
2023-03-18T05:42:00.711Z,99406.34
2023-03-18T05:44:28.279Z,99411.19
2023-03-18T05:46:54.864Z,99388.47
2023-03-18T05:49:23.362Z,99395.41
2023-03-18T05:51:52.128Z,99382.63
2023-03-18T05:54:20.263Z,99377.78
2023-03-18T05:56:47.302Z,99378.38
2023-03-18T05:59:15.403Z,99379.34
2023-03-18T06:01:42.327Z,99382.81
2023-03-18T06:04:10.401Z,99345.25
2023-03-18T06:06:40.446Z,99340.97
2023-03-18T06:09:12.107Z,99324.31
2023-03-18T06:11:40.251Z,99325.69
2023-03-18T06:14:08.256Z,99330.94
2023-03-18T06:16:36.000Z,99324.00
2023-03-18T06:19:04.181Z,99316.63
2023-03-18T06:21:33.284Z,99286.91
2023-03-18T06:24:01.776Z,99285.47
2023-03-18T06:26:28.730Z,99288.03
2023-03-18T06:28:56.492Z,99289.81
2023-03-18T06:31:24.346Z,99269.28
2023-03-18T06:33:52.117Z,99261.50
2023-03-18T06:36:19.385Z,99269.66
2023-03-18T06:38:46.086Z,99263.31
2023-03-18T06:46:31.213Z,99258.47
2023-03-18T06:48:59.088Z,99279.97
2023-03-18T06:51:25.737Z,99263.75
2023-03-18T06:53:52.728Z,99268.19
2023-03-18T06:56:20.539Z,99252.97
2023-03-18T06:58:47.083Z,99236.75
2023-03-18T07:01:14.232Z,99244.69
2023-03-18T07:03:40.879Z,99262.44
2023-03-18T07:06:09.823Z,99241.00
2023-03-18T07:08:37.010Z,99274.53
2023-03-18T07:11:04.719Z,99272.72
2023-03-18T07:13:31.324Z,99253.03
2023-03-18T07:15:58.921Z,99244.28
2023-03-18T07:18:25.688Z,99270.38
2023-03-18T07:20:52.617Z,99272.72
2023-03-18T07:23:19.872Z,99269.78
2023-03-18T07:25:46.856Z,99262.97
2023-03-18T07:28:13.643Z,99254.63
2023-03-18T07:30:40.236Z,99269.06
2023-03-18T07:33:06.983Z,99257.16
2023-03-18T07:35:33.950Z,99232.66
2023-03-18T07:38:01.007Z,99230.03
2023-03-18T07:40:27.699Z,99187.66
2023-03-18T07:42:54.164Z,99154.84
2023-03-18T07:45:20.755Z,99144.81
2023-03-18T07:47:47.597Z,99104.72
2023-03-18T07:50:14.653Z,99051.72
2023-03-18T07:52:42.126Z,99049.78
2023-03-18T07:55:09.340Z,99041.81
2023-03-18T07:57:36.880Z,99050.41
2023-03-18T08:00:05.268Z,99046.47
2023-03-18T08:02:32.064Z,99049.03
2023-03-18T08:04:58.972Z,99071.94
2023-03-18T08:07:25.620Z,99093.25
2023-03-18T08:09:52.669Z,99128.38
2023-03-18T08:12:19.858Z,99155.06
2023-03-18T08:14:46.437Z,99176.00
2023-03-18T08:17:13.095Z,99154.97
2023-03-18T08:19:39.628Z,99166.34
2023-03-18T08:22:06.342Z,99177.75
2023-03-18T08:24:33.169Z,99212.97
2023-03-18T08:26:59.857Z,99225.38
2023-03-18T08:29:27.266Z,99247.19
2023-03-18T08:31:54.284Z,99271.25
2023-03-18T08:34:20.957Z,99303.25
2023-03-18T08:36:48.469Z,99341.03
2023-03-18T08:39:15.881Z,99367.75
2023-03-18T08:41:44.242Z,99405.63
2023-03-18T08:44:12.291Z,99454.06
2023-03-18T08:46:39.063Z,99492.13
2023-03-18T08:49:07.684Z,99504.81
2023-03-18T08:51:34.542Z,99529.69
2023-03-18T08:54:01.230Z,99551.09
2023-03-18T08:56:28.048Z,99570.78
2023-03-18T08:58:54.689Z,99593.09
2023-03-18T09:01:22.592Z,99621.25
2023-03-18T09:03:49.825Z,99623.75
2023-03-18T09:06:17.001Z,99631.34
2023-03-18T09:08:44.818Z,99654.53
2023-03-18T09:11:11.483Z,99686.91
2023-03-18T09:13:39.259Z,99706.78
2023-03-18T09:16:06.175Z,99743.84
2023-03-18T09:18:32.832Z,99771.44
2023-03-18T09:20:59.512Z,99814.69
2023-03-18T09:23:27.622Z,99838.56
2023-03-18T09:25:54.996Z,99868.31
2023-03-18T09:28:21.567Z,99891.00
2023-03-18T09:30:48.490Z,99914.25
2023-03-18T09:33:16.212Z,99942.19
2023-03-18T09:35:43.138Z,99957.50
2023-03-18T09:38:15.226Z,99977.91
2023-03-18T09:40:56.144Z,99980.16
2023-03-18T09:43:28.542Z,99995.88
2023-03-18T09:46:13.075Z,99999.53
2023-03-18T09:48:54.411Z,100002.63
2023-03-18T09:51:42.063Z,100031.16
2023-03-18T09:54:16.264Z,100051.56
2023-03-18T09:56:45.415Z,100048.13
2023-03-18T09:59:31.371Z,100046.94
2023-03-18T10:02:00.136Z,100048.97
2023-03-18T10:04:36.328Z,100044.09
2023-03-18T10:07:11.789Z,100042.53
2023-03-18T10:09:54.170Z,100018.50
2023-03-18T10:12:39.250Z,100018.06
2023-03-18T10:15:31.442Z,99990.13
2023-03-18T10:18:17.432Z,99987.59
2023-03-18T10:21:32.290Z,99967.34
2023-03-18T10:24:17.239Z,99950.75
2023-03-18T10:27:01.707Z,99942.56
2023-03-18T10:30:00.540Z,99943.53
2023-03-18T10:32:49.176Z,99922.09
2023-03-18T10:35:35.210Z,99931.91
2023-03-18T10:38:02.370Z,99913.72
2023-03-18T10:40:35.640Z,99911.63
2023-03-18T10:43:04.216Z,99901.50
2023-03-18T10:45:34.330Z,99900.72
2023-03-18T10:48:06.120Z,99886.19
2023-03-18T10:50:48.665Z,99882.91
2023-03-18T10:53:21.147Z,99871.56
2023-03-18T10:56:07.943Z,99861.78
2023-03-18T10:58:34.971Z,99863.38
2023-03-18T11:01:01.679Z,99844.47
2023-03-18T11:03:35.705Z,99862.84
2023-03-18T11:06:04.773Z,99864.69
2023-03-18T11:08:34.518Z,99888.66
2023-03-18T11:11:32.988Z,99922.44
2023-03-18T11:14:02.317Z,99971.31
2023-03-18T11:16:35.877Z,100034.50
2023-03-18T11:19:21.206Z,100079.50
2023-03-18T11:21:47.858Z,100125.28
2023-03-18T11:24:36.592Z,100192.63
2023-03-18T11:27:04.470Z,100295.31
2023-03-18T11:29:35.195Z,100449.97
2023-03-18T11:32:02.504Z,100819.56
2023-03-18T11:34:32.518Z,101140.09
2023-03-18T11:37:04.559Z,101151.38
2023-03-18T11:39:36.689Z,101244.50
2023-03-18T11:42:21.915Z,101265.75
2023-03-18T11:44:54.464Z,101314.22
2023-03-18T11:47:31.361Z,101325.41
2023-03-18T11:49:58.408Z,101330.13
2023-03-18T11:52:30.909Z,101291.44
2023-03-18T11:55:10.791Z,101289.84
2023-03-18T11:57:46.608Z,101297.56
2023-03-18T12:00:25.479Z,101312.09
2023-03-18T12:03:13.590Z,101310.84
